Time;durP1;ratioP1;P1;durP2;ratioP2;P2;SDS_P1;SDS_P2;PMS_P1;PMS_P2;Temp;Humidity;BMP_temperature;BMP_pressure;BME280_temperature;BME280_humidity;BME280_pressure;Samples;Min_cycle;Max_cycle;Signal;HPM_P1;HPM_P2
2024/02/26 00:00:26;;;;;;;26.80;17.20;;;;;;;7.27;76.28;99228.22;104426;1250;108188;-74
2024/02/26 00:03:13;;;;;;;26.90;17.80;;;;;;;7.26;76.48;99227.93;103902;1253;96463;-73
2024/02/26 00:05:42;;;;;;;25.50;17.40;;;;;;;7.25;76.47;99228.67;103964;1251;138495;-74
2024/02/26 00:08:09;;;;;;;24.50;16.80;;;;;;;7.22;76.65;99222.89;104240;1250;108538;-74
2024/02/26 00:10:37;;;;;;;27.10;17.10;;;;;;;7.22;76.75;99225.85;103710;1253;138063;-71
2024/02/26 00:13:05;;;;;;;25.40;17.80;;;;;;;7.21;76.73;99223.43;103655;1251;107435;-73
2024/02/26 00:15:35;;;;;;;27.40;17.50;;;;;;;7.22;76.89;99217.73;103462;1250;138345;-73
2024/02/26 00:18:02;;;;;;;25.60;17.70;;;;;;;7.21;76.90;99212.21;104569;1250;108981;-72
2024/02/26 00:20:30;;;;;;;24.90;16.90;;;;;;;7.20;77.02;99215.55;103511;1251;107926;-72
2024/02/26 00:22:57;;;;;;;23.30;16.80;;;;;;;7.18;77.08;99211.10;104388;1250;138363;-73
2024/02/26 00:25:24;;;;;;;26.00;17.40;;;;;;;7.20;77.01;99212.95;103977;1250;107598;-72
2024/02/26 00:27:51;;;;;;;25.10;17.70;;;;;;;7.18;77.09;99205.73;103456;1250;140112;-73
2024/02/26 00:30:19;;;;;;;24.60;17.00;;;;;;;7.17;77.20;99205.07;103759;1250;109468;-72
2024/02/26 00:32:46;;;;;;;24.60;16.90;;;;;;;7.18;77.26;99205.39;103851;1250;108362;-73
2024/02/26 00:35:15;;;;;;;28.30;18.70;;;;;;;7.21;77.34;99205.50;104074;1250;138072;-74
2024/02/26 00:37:43;;;;;;;26.60;17.90;;;;;;;7.21;77.52;99209.27;103864;1256;107886;-73
2024/02/26 00:40:12;;;;;;;28.10;18.10;;;;;;;7.19;77.57;99211.06;102673;1251;1003252;-73
2024/02/26 00:42:45;;;;;;;26.70;18.20;;;;;;;7.16;77.83;99212.71;103801;1255;110251;-73
2024/02/26 00:45:13;;;;;;;30.10;18.70;;;;;;;7.11;77.68;99210.31;103533;1251;107631;-73
2024/02/26 00:47:41;;;;;;;24.30;17.40;;;;;;;7.06;77.66;99207.20;103500;1250;137842;-73
2024/02/26 00:50:10;;;;;;;25.90;18.50;;;;;;;7.00;77.78;99205.50;103863;1251;108498;-73
2024/02/26 00:52:37;;;;;;;26.00;17.40;;;;;;;6.93;78.00;99206.95;103899;1251;138714;-73
2024/02/26 00:55:06;;;;;;;25.60;18.60;;;;;;;6.86;78.12;99213.94;103522;1251;109808;-73
2024/02/26 00:57:33;;;;;;;23.20;17.80;;;;;;;6.77;78.27;99201.10;103617;1254;138216;-73
2024/02/26 01:00:01;;;;;;;26.10;18.50;;;;;;;6.70;78.52;99202.05;103636;1250;96338;-73
2024/02/26 01:02:29;;;;;;;28.80;19.10;;;;;;;6.64;78.84;99201.70;104343;1256;108057;-73
2024/02/26 01:04:56;;;;;;;30.90;18.30;;;;;;;6.60;79.11;99200.81;103482;1253;138684;-72
2024/02/26 01:07:23;;;;;;;29.20;19.50;;;;;;;6.54;79.38;99203.05;103762;1251;109705;-73
2024/02/26 01:09:51;;;;;;;27.20;18.50;;;;;;;6.50;79.57;99205.98;103576;1251;138498;-73
2024/02/26 01:12:18;;;;;;;29.00;18.20;;;;;;;6.46;79.78;99205.73;103566;1253;96981;-73
2024/02/26 01:14:46;;;;;;;27.00;18.40;;;;;;;6.43;80.13;99210.16;103771;1251;106901;-72
2024/02/26 01:17:13;;;;;;;29.30;18.90;;;;;;;6.38;80.30;99213.94;103774;1250;138256;-73
2024/02/26 01:19:41;;;;;;;27.40;19.10;;;;;;;6.36;80.50;99214.71;103825;1251;108956;-72
2024/02/26 01:22:08;;;;;;;30.60;20.00;;;;;;;6.32;80.80;99210.69;103766;1251;138313;-73
2024/02/26 01:24:35;;;;;;;30.30;19.60;;;;;;;6.30;80.74;99209.73;103528;1251;96427;-72
2024/02/26 01:27:03;;;;;;;28.80;19.20;;;;;;;6.27;80.89;99204.44;103504;1254;108871;-73
2024/02/26 01:29:30;;;;;;;29.00;19.50;;;;;;;6.25;81.09;99200.70;103525;1255;138487;-73
2024/02/26 01:31:57;;;;;;;29.00;19.10;;;;;;;6.24;81.28;99197.99;103577;1251;110117;-73
2024/02/26 01:34:25;;;;;;;25.40;18.00;;;;;;;6.21;81.38;99195.14;103389;1252;138572;-73
2024/02/26 01:36:52;;;;;;;28.20;19.10;;;;;;;6.21;81.66;99196.52;104865;1254;95746;-74
2024/02/26 01:39:19;;;;;;;29.00;19.00;;;;;;;6.20;81.62;99202.77;103990;1253;108155;-72
2024/02/26 01:41:47;;;;;;;31.40;20.10;;;;;;;6.19;81.84;99207.97;103423;1254;137902;-73
2024/02/26 01:44:15;;;;;;;27.40;19.00;;;;;;;6.17;82.16;99209.60;103527;1255;109312;-73
2024/02/26 01:46:43;;;;;;;26.10;18.30;;;;;;;6.14;82.08;99208.83;103989;1251;138265;-74
2024/02/26 01:49:12;;;;;;;30.90;19.90;;;;;;;6.12;82.22;99209.08;104039;1250;95136;-74
2024/02/26 01:51:42;;;;;;;29.60;19.60;;;;;;;6.09;82.59;99213.46;104030;1254;138022;-73
2024/02/26 01:54:10;;;;;;;28.20;20.10;;;;;;;6.04;83.20;99214.81;104180;1251;96808;-73
2024/02/26 01:56:39;;;;;;;28.60;19.40;;;;;;;6.01;83.70;99212.30;103478;1253;110333;-73
2024/02/26 01:59:09;;;;;;;28.40;19.20;;;;;;;5.98;83.45;99211.38;104005;1250;138573;-73
2024/02/26 02:01:37;;;;;;;30.60;20.00;;;;;;;5.95;83.35;99211.32;103560;1250;96331;-73
2024/02/26 02:04:05;;;;;;;31.00;19.20;;;;;;;5.94;83.37;99212.55;103765;1250;138356;-74
2024/02/26 02:06:32;;;;;;;30.20;19.10;;;;;;;5.91;83.80;99208.98;104821;1253;94932;-72
2024/02/26 02:09:06;;;;;;;32.20;20.70;;;;;;;5.89;83.77;99202.30;103731;1251;110239;-73
2024/02/26 02:11:33;;;;;;;33.70;19.80;;;;;;;5.86;84.00;99196.35;104024;1253;137953;-73
2024/02/26 02:14:01;;;;;;;28.80;19.80;;;;;;;5.84;84.16;99199.85;103864;1255;96773;-74
2024/02/26 02:16:28;;;;;;;31.60;20.40;;;;;;;5.82;84.15;99200.45;104005;1253;138893;-74
2024/02/26 05:27:32;;;;;;;28.50;19.20;;;;;;;5.14;92.04;99249.58;103730;1257;96403;-70
2024/02/26 05:30:00;;;;;;;28.80;20.30;;;;;;;5.11;92.18;99247.40;103471;1256;138010;-72
2024/02/26 05:32:27;;;;;;;30.40;20.00;;;;;;;5.14;92.70;99256.45;103508;1258;106871;-71
2024/02/26 05:34:54;;;;;;;29.00;20.50;;;;;;;5.17;92.84;99261.91;103486;1257;138432;-71
2024/02/26 05:37:21;;;;;;;28.70;20.20;;;;;;;5.19;92.79;99265.64;102800;1251;1002703;-72
2024/02/26 05:39:48;;;;;;;31.80;20.40;;;;;;;5.22;92.94;99265.58;103533;1254;96457;-71
2024/02/26 05:42:15;;;;;;;28.80;20.30;;;;;;;5.25;92.78;99262.05;103442;1256;137840;-71
2024/02/26 05:44:42;;;;;;;30.50;20.30;;;;;;;5.28;93.02;99269.20;103553;1251;107981;-73
2024/02/26 05:47:09;;;;;;;29.10;20.80;;;;;;;5.31;92.88;99268.08;101337;1251;1003077;-71
2024/02/26 05:49:36;;;;;;;29.60;19.90;;;;;;;5.34;93.09;99267.48;103842;1251;107701;-72
2024/02/26 05:52:03;;;;;;;27.30;19.50;;;;;;;5.35;92.96;99257.80;103539;1256;96328;-72
2024/02/26 05:54:30;;;;;;;30.00;20.10;;;;;;;5.40;92.85;99264.05;103407;1257;138528;-71
2024/02/26 05:56:58;;;;;;;30.10;21.60;;;;;;;5.44;92.88;99266.86;103366;1257;108101;-72
2024/02/26 05:59:25;;;;;;;30.50;19.90;;;;;;;5.51;92.85;99269.10;103450;1251;139888;-72
2024/02/26 06:01:52;;;;;;;28.50;20.50;;;;;;;5.60;92.99;99267.81;103565;1254;107528;-72
2024/02/26 06:04:19;;;;;;;29.20;20.60;;;;;;;5.74;93.00;99268.98;103555;1251;96338;-72
2024/02/26 06:06:46;;;;;;;27.70;19.20;;;;;;;5.85;92.51;99271.26;103594;1251;137919;-73
2024/02/26 06:09:13;;;;;;;30.40;19.60;;;;;;;5.92;92.31;99269.52;103497;1256;108715;-75
2024/02/26 06:11:40;;;;;;;29.00;19.30;;;;;;;5.99;92.19;99276.58;103438;1251;139326;-78
2024/02/26 06:14:08;;;;;;;28.30;20.00;;;;;;;6.05;91.99;99276.38;103523;1256;107432;-75
2024/02/26 06:16:35;;;;;;;27.10;19.50;;;;;;;6.10;91.78;99273.66;103541;1251;96316;-80
2024/02/26 06:19:03;;;;;;;28.00;18.80;;;;;;;6.17;91.54;99276.73;103450;1254;138629;-83
2024/02/26 06:21:34;;;;;;;28.30;19.20;;;;;;;6.23;91.53;99273.80;103519;1254;107852;-70
2024/02/26 06:24:01;;;;;;;27.30;19.90;;;;;;;6.29;91.44;99276.89;103452;1251;138069;-72
2024/02/26 06:26:29;;;;;;;29.60;20.10;;;;;;;6.36;91.30;99281.02;103531;1254;108042;-79
2024/02/26 06:28:56;;;;;;;25.50;19.10;;;;;;;6.41;91.02;99284.46;103449;1251;138261;-75
2024/02/26 06:31:24;;;;;;;25.70;18.90;;;;;;;6.48;90.82;99284.95;103958;1251;109501;-79
2024/02/26 06:33:51;;;;;;;26.50;19.80;;;;;;;6.56;90.61;99287.95;103520;1251;107442;-80
2024/02/26 06:36:19;;;;;;;27.40;19.40;;;;;;;6.64;90.30;99283.57;104427;1256;138938;-87
2024/02/26 06:38:46;;;;;;;25.50;19.10;;;;;;;6.75;90.07;99287.38;103551;1254;107529;-83
2024/02/26 06:41:13;;;;;;;24.60;18.80;;;;;;;6.83;89.75;99294.20;103476;1255;138320;-82
2024/02/26 06:43:40;;;;;;;27.40;19.70;;;;;;;6.91;89.60;99291.88;103620;1251;110105;-79
2024/02/26 06:46:08;;;;;;;26.60;19.20;;;;;;;7.04;89.39;99290.25;103515;1257;108100;-78
2024/02/26 06:48:36;;;;;;;27.10;18.80;;;;;;;7.35;89.44;99290.38;103516;1251;138134;-76
2024/02/26 06:51:04;;;;;;;25.00;18.20;;;;;;;7.75;88.75;99292.11;104353;1256;107931;-76
2024/02/26 06:53:32;;;;;;;22.90;17.30;;;;;;;8.21;88.11;99287.81;103556;1254;140119;-75
2024/02/26 06:55:59;;;;;;;25.10;17.40;;;;;;;8.81;86.87;99279.60;103503;1251;110677;-75
2024/02/26 06:58:26;;;;;;;24.80;16.50;;;;;;;9.37;85.39;99279.70;103391;1251;107105;-79
2024/02/26 07:00:53;;;;;;;20.20;15.70;;;;;;;10.30;83.40;99277.83;102546;1257;138286;-77
2024/02/26 07:03:22;;;;;;;21.40;15.50;;;;;;;11.26;80.66;99283.96;103215;1251;108868;-77
2024/02/26 07:05:50;;;;;;;21.10;15.60;;;;;;;12.16;78.57;99280.67;103454;1254;138505;-79
2024/02/26 07:08:17;;;;;;;21.70;15.10;;;;;;;13.25;75.63;99278.73;103314;1256;109202;-78
2024/02/26 07:10:44;;;;;;;21.10;14.70;;;;;;;14.29;72.78;99279.08;103411;1251;108396;-84
2024/02/26 07:13:12;;;;;;;19.40;14.60;;;;;;;15.32;70.38;99277.80;103462;1255;96440;-76
2024/02/26 07:15:39;;;;;;;20.00;14.40;;;;;;;16.33;67.97;99272.59;103325;1251;107670;-77
2024/02/26 07:18:07;;;;;;;18.90;14.50;;;;;;;17.28;65.27;99272.13;103291;1251;137650;-76
2024/02/26 07:20:34;;;;;;;21.70;15.00;;;;;;;18.26;63.93;99265.60;103840;1251;109460;-76
2024/02/26 07:23:01;;;;;;;18.40;14.50;;;;;;;19.34;62.19;99270.00;103269;1255;137998;-75
2024/02/26 07:25:30;;;;;;;20.40;14.00;;;;;;;20.22;58.77;99270.20;103490;1254;98098;-75
2024/02/26 07:27:57;;;;;;;17.40;13.60;;;;;;;20.83;56.39;99267.60;103375;1251;107216;-77
2024/02/26 07:30:24;;;;;;;18.90;13.00;;;;;;;21.31;53.67;99277.39;103205;1252;138072;-77
2024/02/26 07:32:52;;;;;;;17.30;13.30;;;;;;;21.59;53.49;99273.01;103296;1257;109310;-67
2024/02/26 07:35:19;;;;;;;18.40;13.60;;;;;;;21.85;51.39;99277.38;103133;1251;137851;-67
2024/02/26 07:37:48;;;;;;;16.30;13.70;;;;;;;21.72;49.28;99277.73;104043;1251;96403;-65
2024/02/26 07:40:16;;;;;;;17.70;14.40;;;;;;;20.96;48.79;99280.75;103723;1251;107860;-68
2024/02/26 07:42:43;;;;;;;20.30;14.70;;;;;;;20.50;50.33;99279.79;104616;1251;137905;-81
2024/02/26 07:45:15;;;;;;;19.90;13.80;;;;;;;20.20;51.29;99283.40;103770;1251;109562;-79
2024/02/26 07:47:43;;;;;;;19.40;14.20;;;;;;;20.03;50.92;99286.00;104199;1254;138622;-81
2024/02/26 07:50:12;;;;;;;18.10;15.20;;;;;;;19.26;50.18;99286.17;103469;1251;96445;-83
2024/02/26 07:52:40;;;;;;;19.40;15.20;;;;;;;18.31;50.46;99292.13;103710;1251;109109;-82
2024/02/26 07:55:09;;;;;;;21.20;15.40;;;;;;;17.55;51.59;99293.10;103239;1256;139706;-82
2024/02/26 07:57:36;;;;;;;17.50;13.80;;;;;;;17.41;53.02;99298.02;103779;1255;110073;-82
2024/02/26 08:00:07;;;;;;;19.70;13.50;;;;;;;17.87;53.02;99296.48;103334;1251;137783;-81
2024/02/26 08:02:35;;;;;;;19.30;14.90;;;;;;;18.46;52.70;99298.86;103459;1254;96434;-81
2024/02/26 08:05:02;;;;;;;15.60;13.60;;;;;;;18.84;51.86;99301.50;103227;1257;138295;-82
2024/02/26 08:07:29;;;;;;;15.90;14.20;;;;;;;19.10;51.26;99302.13;103288;1254;96335;-85
2024/02/26 08:09:57;;;;;;;17.00;13.10;;;;;;;19.24;50.24;99301.89;103432;1251;110646;-87
2024/02/26 08:12:24;;;;;;;14.20;12.70;;;;;;;19.28;48.37;99305.37;103303;1256;138805;-85
2024/02/26 08:14:51;;;;;;;14.00;12.50;;;;;;;19.32;48.63;99308.25;103426;1251;96510;-86
2024/02/26 08:17:19;;;;;;;14.60;13.10;;;;;;;19.56;48.32;99308.20;103225;1256;137728;-86
2024/02/26 08:19:46;;;;;;;16.70;13.60;;;;;;;19.86;48.11;99306.70;103351;1253;96449;-80
2024/02/26 08:22:16;;;;;;;14.20;12.40;;;;;;;20.32;48.65;99300.79;103421;1255;109597;-66
2024/02/26 08:24:43;;;;;;;15.60;12.30;;;;;;;20.90;48.28;99296.31;103452;1256;140501;-65
2024/02/26 08:27:10;;;;;;;14.10;12.20;;;;;;;21.44;47.96;99293.70;104559;1251;96467;-66
2024/02/26 08:29:37;;;;;;;17.10;12.30;;;;;;;22.03;47.51;99294.19;103238;1251;137483;-66
2024/02/26 08:32:07;;;;;;;13.00;11.70;;;;;;;22.41;45.68;99296.95;103716;1251;96247;-67
2024/02/26 08:34:34;;;;;;;13.20;11.50;;;;;;;22.55;44.36;99310.33;104692;1253;110206;-65
2024/02/26 08:37:01;;;;;;;14.40;12.10;;;;;;;22.48;43.99;99307.27;103645;1253;139515;-66
2024/02/26 08:39:28;;;;;;;13.60;11.60;;;;;;;22.50;44.50;99311.01;103359;1256;96313;-65
2024/02/26 08:41:55;;;;;;;13.50;11.80;;;;;;;22.52;43.60;99313.22;103248;1253;137512;-65
2024/02/26 08:44:22;;;;;;;14.10;12.00;;;;;;;22.54;44.23;99308.77;103328;1252;97024;-65
2024/02/26 08:46:50;;;;;;;13.10;11.70;;;;;;;22.62;43.37;99311.02;103809;1253;110744;-65
2024/02/26 08:49:17;;;;;;;15.40;12.90;;;;;;;22.57;43.59;99318.09;103725;1255;106921;-66
2024/02/26 08:51:45;;;;;;;14.50;12.60;;;;;;;22.42;42.69;99317.58;103385;1251;96443;-66
2024/02/26 08:54:12;;;;;;;16.70;13.00;;;;;;;22.15;42.34;99316.27;103231;1255;139005;-67
2024/02/26 08:56:40;;;;;;;15.10;13.20;;;;;;;21.81;42.36;99318.58;103369;1251;96332;-65
2024/02/26 08:59:07;;;;;;;14.70;12.70;;;;;;;21.56;43.30;99315.77;103206;1256;138134;-65
2024/02/26 09:01:35;;;;;;;13.60;12.20;;;;;;;21.39;43.36;99315.45;103246;1251;106265;-65
2024/02/26 09:04:02;;;;;;;13.80;12.40;;;;;;;21.27;44.08;99307.66;103263;1256;96451;-65
2024/02/26 09:06:29;;;;;;;14.70;13.10;;;;;;;21.18;44.38;99315.42;103226;1251;137505;-65
2024/02/26 09:08:56;;;;;;;14.80;13.30;;;;;;;21.37;44.94;99312.58;103360;1256;96813;-65
2024/02/26 09:11:28;;;;;;;14.40;12.40;;;;;;;21.65;45.06;99314.73;103156;1251;137754;-66
2024/02/26 09:13:56;;;;;;;17.40;12.90;;;;;;;21.89;44.98;99313.95;103271;1254;107954;-65
2024/02/26 09:16:23;;;;;;;13.00;10.90;;;;;;;22.11;44.52;99311.20;103383;1253;96550;-66
2024/02/26 09:18:50;;;;;;;13.90;11.50;;;;;;;22.37;44.34;99311.59;103565;1251;139374;-65
2024/02/26 09:21:22;;;;;;;13.30;11.90;;;;;;;22.34;43.05;99319.63;103223;1251;96482;-66
2024/02/26 09:23:50;;;;;;;13.00;11.80;;;;;;;22.02;42.65;99323.70;103057;1253;138228;-66
2024/02/26 09:26:18;;;;;;;13.30;11.80;;;;;;;21.73;42.85;99323.27;103291;1254;107508;-66
2024/02/26 09:28:46;;;;;;;14.30;10.60;;;;;;;21.42;43.28;99328.77;103364;1256;96475;-65
2024/02/26 09:31:15;;;;;;;14.00;11.10;;;;;;;21.25;43.66;99324.33;103142;1251;137337;-65
2024/02/26 09:33:42;;;;;;;13.00;11.50;;;;;;;21.05;43.56;99329.48;103212;1255;96343;-65
2024/02/26 09:36:11;;;;;;;12.80;11.50;;;;;;;20.76;43.99;99324.33;103207;1251;137522;-65
2024/02/26 09:38:39;;;;;;;12.00;10.80;;;;;;;20.58;44.58;99328.52;103341;1251;107925;-66
2024/02/26 09:41:22;;;;;;;13.40;12.00;;;;;;;20.29;44.86;99329.79;104140;1253;139352;-67
2024/02/26 09:43:54;;;;;;;14.70;11.60;;;;;;;20.05;45.47;99331.54;103395;1251;108424;-66
2024/02/26 09:46:22;;;;;;;13.90;11.40;;;;;;;19.91;45.97;99327.08;103464;1253;96328;-67
2024/02/26 09:48:49;;;;;;;13.90;11.70;;;;;;;19.97;46.52;99329.47;103239;1256;137818;-66
2024/02/26 09:51:17;;;;;;;14.10;12.60;;;;;;;20.11;46.39;99329.30;103386;1251;108956;-66
2024/02/26 09:53:48;;;;;;;13.10;11.80;;;;;;;20.27;46.95;99330.84;103274;1256;138307;-67
2024/02/26 09:56:15;;;;;;;14.10;11.40;;;;;;;20.36;45.73;99337.00;103395;1256;107981;-67
2024/02/26 09:58:45;;;;;;;12.90;11.70;;;;;;;20.07;45.89;99336.98;103384;1256;96576;-67
2024/02/26 10:01:17;;;;;;;12.50;11.30;;;;;;;19.90;46.88;99340.23;103337;1255;137286;-66
2024/02/26 10:03:45;;;;;;;14.20;11.30;;;;;;;20.01;46.39;99343.23;103619;1250;108156;-64
2024/02/26 10:06:12;;;;;;;13.50;12.10;;;;;;;19.88;46.36;99346.45;103560;1252;137876;-68
2024/02/26 10:08:40;;;;;;;12.80;11.20;;;;;;;19.40;46.53;99344.45;103341;1253;108791;-65
2024/02/26 10:11:09;;;;;;;12.50;11.20;;;;;;;18.81;47.52;99346.98;103269;1251;138455;-66
2024/02/26 10:13:38;;;;;;;12.20;11.00;;;;;;;18.88;48.39;99342.92;103309;1253;111668;-65
2024/02/26 10:16:06;;;;;;;13.40;10.90;;;;;;;18.91;48.00;99348.65;103373;1250;107894;-65
2024/02/26 10:21:37;;;;;;;12.50;11.20;;;;;;;18.41;49.11;99345.20;100473;1289;636048;-65
2024/02/26 10:24:04;;;;;;;12.70;11.00;;;;;;;18.58;49.13;99344.58;102449;1266;137185;-65
2024/02/26 10:26:32;;;;;;;11.70;10.50;;;;;;;18.51;49.09;99348.27;102699;1266;108263;-64
2024/02/26 10:29:02;;;;;;;11.50;10.40;;;;;;;18.34;48.65;99350.51;102681;1266;137136;-65
2024/02/26 10:31:29;;;;;;;12.70;10.90;;;;;;;17.74;49.08;99348.77;103114;1266;108416;-64
2024/02/26 10:34:02;;;;;;;12.60;11.20;;;;;;;17.07;50.27;99351.16;103588;1266;108211;-66
2024/02/26 10:36:34;;;;;;;13.30;12.00;;;;;;;16.51;51.58;99356.38;102561;1264;137728;-65
2024/02/26 10:39:15;;;;;;;14.40;12.00;;;;;;;16.20;52.93;99351.04;102635;1260;107130;-65
2024/02/26 10:41:45;;;;;;;14.40;12.30;;;;;;;15.84;53.54;99356.13;103159;1255;137275;-78
2024/02/26 10:44:13;;;;;;;14.20;12.30;;;;;;;15.46;54.45;99354.48;103136;1256;106678;-78
2024/02/26 10:46:47;;;;;;;15.20;12.70;;;;;;;15.11;55.26;99357.65;103372;1255;107247;-78
2024/02/26 10:49:19;;;;;;;14.40;12.50;;;;;;;14.81;56.40;99361.35;103460;1257;137255;-80
2024/02/26 10:51:55;;;;;;;14.60;12.90;;;;;;;14.70;56.95;99359.08;103327;1256;106997;-78
2024/02/26 10:54:24;;;;;;;13.80;12.40;;;;;;;14.49;57.83;99358.64;103796;1257;137587;-78
2024/02/26 10:56:52;;;;;;;14.70;13.30;;;;;;;14.17;58.33;99361.98;103269;1256;108001;-79
2024/02/26 10:59:21;;;;;;;15.40;12.80;;;;;;;13.85;59.08;99359.56;102933;1257;138273;-78
2024/02/26 11:01:49;;;;;;;15.80;14.20;;;;;;;13.58;60.29;99359.74;103082;1259;95617;-77
2024/02/26 11:04:18;;;;;;;16.40;13.60;;;;;;;13.30;60.95;99362.46;103863;1256;107770;-80
2024/02/26 11:06:45;;;;;;;17.80;14.60;;;;;;;13.04;61.92;99365.27;102969;1256;138307;-71
2024/02/26 11:09:14;;;;;;;15.60;14.00;;;;;;;12.82;62.79;99361.30;102902;1260;109837;-77
2024/02/26 11:11:41;;;;;;;15.80;13.80;;;;;;;12.66;63.49;99371.77;102067;1261;1014744;-78
2024/02/26 11:14:09;;;;;;;16.60;13.30;;;;;;;12.48;64.18;99372.02;103225;1256;96596;-77
2024/02/26 11:16:38;;;;;;;13.90;12.50;;;;;;;12.23;64.64;99371.99;103914;1256;107155;-78
2024/02/26 11:19:07;;;;;;;12.60;11.40;;;;;;;12.07;65.24;99369.49;103119;1256;138066;-80
2024/02/26 11:21:40;;;;;;;13.30;10.80;;;;;;;11.93;66.20;99368.52;103532;1261;109805;-79
2024/02/26 11:24:12;;;;;;;13.00;11.70;;;;;;;11.85;66.17;99369.42;102784;1256;138065;-76
2024/02/26 11:26:50;;;;;;;11.90;10.70;;;;;;;11.80;67.06;99378.20;103791;1256;94264;-77
2024/02/26 11:29:22;;;;;;;13.40;11.90;;;;;;;11.66;67.73;99379.61;102780;1256;138379;-78
2024/02/26 11:31:49;;;;;;;13.40;12.00;;;;;;;11.54;68.28;99372.05;102875;1257;95022;-78
2024/02/26 11:34:17;;;;;;;12.00;10.80;;;;;;;11.56;68.67;99372.80;102991;1257;108787;-79
2024/02/26 11:36:45;;;;;;;12.60;10.50;;;;;;;11.76;68.71;99371.77;102809;1262;138211;-78
2024/02/26 11:39:16;;;;;;;10.40;9.00;;;;;;;11.87;68.40;99367.25;102921;1262;95649;-78
2024/02/26 11:41:44;;;;;;;13.70;9.70;;;;;;;11.91;68.35;99369.30;102889;1259;139631;-78
2024/02/26 11:44:11;;;;;;;12.50;9.40;;;;;;;11.94;68.07;99364.07;102993;1257;95106;-78
2024/02/26 11:46:44;;;;;;;10.30;9.30;;;;;;;12.08;68.27;99365.30;102935;1261;108260;-78
2024/02/26 11:49:34;;;;;;;9.50;8.70;;;;;;;12.12;68.05;99359.15;102808;1262;137888;-79
2024/02/26 11:52:06;;;;;;;10.90;9.80;;;;;;;12.20;68.25;99363.80;102948;1257;95111;-77
2024/02/26 11:54:46;;;;;;;9.10;8.30;;;;;;;12.41;68.11;99360.23;102936;1257;137664;-78
2024/02/26 11:57:27;;;;;;;9.00;8.10;;;;;;;12.74;67.81;99363.66;103189;1259;95150;-79
2024/02/26 11:59:55;;;;;;;8.40;7.70;;;;;;;13.12;66.97;99362.01;102881;1258;137505;-73
2024/02/26 12:02:45;;;;;;;8.60;7.70;;;;;;;13.41;66.56;99353.95;103735;1257;107679;-79
2024/02/26 12:05:17;;;;;;;9.20;7.80;;;;;;;13.75;65.55;99352.45;102795;1260;137983;-79
2024/02/26 12:07:47;;;;;;;9.00;7.50;;;;;;;13.95;64.87;99352.15;103044;1260;108205;-79
2024/02/26 12:10:28;;;;;;;9.10;7.90;;;;;;;14.11;64.39;99356.56;102934;1262;95692;-79
2024/02/26 12:12:59;;;;;;;8.40;7.20;;;;;;;14.29;63.74;99351.13;103078;1257;137524;-80
2024/02/26 12:15:30;;;;;;;8.30;7.30;;;;;;;14.46;63.48;99348.48;103361;1262;107146;-80
2024/02/26 12:17:59;;;;;;;7.80;7.00;;;;;;;14.64;62.78;99353.31;102895;1259;137915;-80
2024/02/26 12:20:26;;;;;;;9.20;8.00;;;;;;;14.71;62.15;99355.70;103052;1259;108109;-80
2024/02/26 12:22:55;;;;;;;7.50;6.80;;;;;;;14.73;61.71;99352.55;102955;1256;95108;-81
2024/02/26 12:25:25;;;;;;;9.00;6.80;;;;;;;14.84;61.86;99343.48;102840;1262;108274;-80
2024/02/26 12:27:52;;;;;;;8.30;6.50;;;;;;;14.96;61.53;99334.49;103162;1257;105819;-80
2024/02/26 12:30:19;;;;;;;7.30;6.60;;;;;;;15.19;61.53;99341.72;102566;1262;137671;-83
2024/02/26 12:32:48;;;;;;;6.70;5.80;;;;;;;15.40;60.89;99344.35;103026;1256;108949;-79
2024/02/26 12:35:15;;;;;;;6.90;6.00;;;;;;;15.35;59.46;99341.91;103021;1262;137265;-80
2024/02/26 12:37:43;;;;;;;8.20;5.90;;;;;;;15.26;59.29;99344.93;103870;1260;108085;-80
2024/02/26 12:40:12;;;;;;;7.00;5.70;;;;;;;15.23;59.47;99349.70;103264;1260;108967;-79
2024/02/26 12:42:40;;;;;;;6.40;5.80;;;;;;;15.27;59.86;99348.75;103282;1256;138499;-63
2024/02/26 12:45:10;;;;;;;7.10;6.10;;;;;;;15.43;59.97;99341.74;103071;1260;107314;-63
2024/02/26 12:47:38;;;;;;;6.60;5.70;;;;;;;15.56;60.24;99338.59;103128;1256;137423;-63
2024/02/26 12:50:06;;;;;;;6.40;4.80;;;;;;;15.71;58.21;99342.02;103034;1256;108911;-62
2024/02/26 12:52:37;;;;;;;5.10;4.60;;;;;;;15.60;57.67;99343.43;103041;1260;107367;-64
2024/02/26 12:55:08;;;;;;;7.90;4.70;;;;;;;15.57;58.39;99336.39;103084;1261;136994;-64
2024/02/26 12:57:37;;;;;;;5.80;4.10;;;;;;;15.73;58.67;99340.57;103924;1260;107477;-62
2024/02/26 13:00:06;;;;;;;5.20;4.40;;;;;;;15.95;58.35;99342.40;102820;1260;137587;-69
2024/02/26 13:02:33;;;;;;;6.50;5.10;;;;;;;16.06;57.96;99345.89;103180;1260;108589;-72
2024/02/26 13:05:01;;;;;;;9.50;6.00;;;;;;;16.11;57.60;99349.95;102997;1257;137370;-71
2024/02/26 13:07:29;;;;;;;7.00;5.50;;;;;;;16.14;57.65;99351.83;103122;1257;95105;-73
2024/02/26 13:09:56;;;;;;;5.70;4.60;;;;;;;16.19;57.75;99356.20;103707;1257;108628;-71
2024/02/26 13:12:23;;;;;;;6.60;5.20;;;;;;;16.28;57.99;99353.11;102943;1262;137319;-71
2024/02/26 13:15:01;;;;;;;6.20;5.00;;;;;;;16.36;57.38;99351.15;103046;1260;108705;-70
2024/02/26 13:17:32;;;;;;;7.70;4.60;;;;;;;16.31;56.41;99349.18;103014;1257;137595;-70
2024/02/26 13:19:59;;;;;;;4.50;4.10;;;;;;;16.23;56.95;99342.93;102945;1258;95009;-70
2024/02/26 13:22:26;;;;;;;5.50;4.60;;;;;;;16.28;56.80;99341.36;102968;1257;108781;-71
2024/02/26 13:25:02;;;;;;;5.10;4.30;;;;;;;16.33;56.74;99339.23;102827;1260;137392;-70
2024/02/26 13:27:29;;;;;;;9.50;4.20;;;;;;;16.37;56.54;99340.08;103037;1262;108712;-71
2024/02/26 13:30:10;;;;;;;6.10;4.10;;;;;;;16.41;56.75;99337.17;102784;1260;137263;-72
2024/02/26 13:32:40;;;;;;;6.60;4.20;;;;;;;16.46;55.66;99340.48;103343;1260;95130;-71
2024/02/26 13:35:13;;;;;;;5.20;3.80;;;;;;;16.31;55.62;99348.00;102942;1260;137261;-69
2024/02/26 13:37:41;;;;;;;5.10;3.80;;;;;;;16.19;56.01;99348.14;103108;1256;95097;-70
2024/02/26 13:40:12;;;;;;;4.50;3.60;;;;;;;16.11;55.39;99352.04;103091;1258;110033;-70
2024/02/26 13:42:39;;;;;;;5.10;3.40;;;;;;;15.94;55.09;99356.88;103171;1262;137463;-68
2024/02/26 13:45:08;;;;;;;3.70;3.10;;;;;;;15.76;55.55;99357.05;103089;1257;95103;-70
2024/02/26 13:47:36;;;;;;;4.10;3.00;;;;;;;15.67;56.00;99353.09;103110;1260;137160;-70
2024/02/26 13:50:04;;;;;;;4.00;3.40;;;;;;;15.70;56.03;99358.69;103087;1262;95105;-70
2024/02/26 13:52:32;;;;;;;3.60;3.10;;;;;;;15.65;55.85;99354.98;103094;1260;108181;-68
2024/02/26 13:55:00;;;;;;;4.30;3.10;;;;;;;15.53;55.08;99348.95;103144;1257;137467;-70
2024/02/26 13:57:27;;;;;;;4.10;3.00;;;;;;;15.37;55.08;99345.80;102985;1262;95115;-69
2024/02/26 13:59:55;;;;;;;6.80;3.30;;;;;;;15.25;55.46;99342.23;102950;1260;137023;-69
2024/02/26 14:02:22;;;;;;;7.00;2.90;;;;;;;15.18;55.79;99334.14;102991;1261;95094;-71
2024/02/26 14:04:49;;;;;;;3.90;2.70;;;;;;;15.16;55.89;99334.05;102994;1260;108325;-68
2024/02/26 14:07:17;;;;;;;4.30;3.00;;;;;;;15.13;55.96;99335.70;102945;1260;137178;-69
2024/02/26 14:09:45;;;;;;;3.30;2.80;;;;;;;15.09;56.24;99334.51;103099;1257;95103;-68
2024/02/26 14:12:17;;;;;;;5.20;2.80;;;;;;;15.05;56.33;99331.76;103016;1256;137070;-68
2024/02/26 14:14:48;;;;;;;4.90;2.80;;;;;;;15.03;56.54;99326.63;103012;1267;95199;-69
2024/02/26 14:17:16;;;;;;;6.50;2.80;;;;;;;15.06;56.60;99326.59;103635;1259;137625;-69
2024/02/26 14:19:44;;;;;;;7.70;3.00;;;;;;;15.07;56.28;99329.17;103207;1255;108985;-61
2024/02/26 14:22:13;;;;;;;5.60;3.10;;;;;;;15.05;56.44;99333.86;103123;1254;95203;-62
2024/02/26 14:24:40;;;;;;;4.10;2.90;;;;;;;15.06;56.32;99333.30;102920;1259;138908;-67
2024/02/26 14:27:08;;;;;;;3.90;3.00;;;;;;;15.01;56.11;99338.86;103132;1259;95120;-68